Time;durP1;ratioP1;P1;durP2;ratioP2;P2;SDS_P1;SDS_P2;PMS_P1;PMS_P2;Temp;Humidity;BMP_temperature;BMP_pressure;BME280_temperature;BME280_humidity;BME280_pressure;Samples;Min_cycle;Max_cycle;Signal;HPM_P1;HPM_P2
2021/10/16 00:00:36;;;;;;;8.63;4.88;;;;;;;12.01;81.20;101433.88;5087411;28;20468;-78
2021/10/16 00:03:02;;;;;;;5.00;3.30;;;;;;;12.03;81.28;101436.28;5084571;28;20048;-78
2021/10/16 00:05:29;;;;;;;5.15;2.92;;;;;;;12.04;81.44;101435.97;5085631;28;20127;-78
2021/10/16 00:07:56;;;;;;;5.60;3.38;;;;;;;12.04;81.35;101437.94;5089088;28;20068;-78
2021/10/16 00:10:23;;;;;;;4.60;2.80;;;;;;;12.02;81.34;101434.69;5086585;28;20568;-78
2021/10/16 00:12:50;;;;;;;4.35;3.00;;;;;;;12.02;81.20;101441.03;5086233;28;20400;-78
2021/10/16 00:15:17;;;;;;;6.72;3.40;;;;;;;12.01;81.54;101438.59;5085680;28;20405;-78
2021/10/16 00:17:44;;;;;;;5.43;3.10;;;;;;;12.00;81.37;101432.22;5087718;28;20040;-78
2021/10/16 00:20:11;;;;;;;5.30;3.40;;;;;;;12.02;81.26;101429.13;5090270;28;20138;-78
2021/10/16 00:22:38;;;;;;;4.95;3.20;;;;;;;12.02;81.37;101427.16;5087110;28;20043;-78
2021/10/16 00:25:05;;;;;;;7.00;3.95;;;;;;;12.00;81.27;101421.13;5083631;28;20554;-78
2021/10/16 00:27:31;;;;;;;5.53;3.30;;;;;;;11.99;81.45;101418.72;5087205;28;20032;-78
2021/10/16 00:29:58;;;;;;;7.53;4.43;;;;;;;11.97;81.47;101410.69;5069569;28;20052;-78
2021/10/16 00:32:25;;;;;;;7.03;4.20;;;;;;;11.97;81.32;101412.66;5086642;28;20032;-78
2021/10/16 00:34:52;;;;;;;6.55;4.13;;;;;;;11.95;81.55;101413.00;5085244;28;20073;-78
2021/10/16 00:37:18;;;;;;;5.82;3.78;;;;;;;11.97;81.36;101412.66;5069076;28;20044;-78
2021/10/16 00:39:45;;;;;;;6.28;3.67;;;;;;;11.96;81.59;101420.19;5085726;28;20046;-79
2021/10/16 00:42:12;;;;;;;6.07;3.45;;;;;;;11.97;81.60;101420.97;5085213;28;20043;-78
2021/10/16 00:44:39;;;;;;;6.18;3.92;;;;;;;11.98;81.75;101417.06;5085753;28;20062;-78
2021/10/16 00:47:05;;;;;;;9.32;3.45;;;;;;;11.99;81.59;101415.94;5086727;28;20090;-78
2021/10/16 00:49:32;;;;;;;6.32;3.10;;;;;;;11.98;81.53;101417.88;5086433;28;20128;-78
2021/10/16 00:52:01;;;;;;;3.85;3.28;;;;;;;11.99;81.50;101402.84;5083710;28;20040;-77
2021/10/16 00:54:28;;;;;;;4.28;3.20;;;;;;;12.00;81.47;101414.75;5085425;28;20050;-78
2021/10/16 00:56:59;;;;;;;4.30;3.22;;;;;;;11.99;81.64;101407.59;5084870;28;20040;-78
2021/10/16 00:59:26;;;;;;;5.30;3.53;;;;;;;11.99;81.66;101410.38;5087050;28;20032;-78
2021/10/16 01:01:52;;;;;;;4.20;3.35;;;;;;;11.99;81.72;101402.06;5087413;28;20044;-78
2021/10/16 01:04:19;;;;;;;7.50;2.95;;;;;;;11.99;81.41;101397.28;5085796;28;20036;-78
2021/10/16 01:06:46;;;;;;;5.78;2.78;;;;;;;11.99;81.76;101400.06;5088690;28;20043;-78
2021/10/16 01:09:14;;;;;;;5.65;3.40;;;;;;;12.00;81.89;101398.13;5084639;28;20124;-78
2021/10/16 01:11:49;;;;;;;7.82;3.15;;;;;;;12.00;81.71;101393.38;5086936;28;20044;-78
2021/10/16 01:14:16;;;;;;;4.90;4.10;;;;;;;12.01;81.83;101391.41;5086113;28;20036;-78
2021/10/16 01:16:46;;;;;;;6.57;3.60;;;;;;;12.00;81.67;101381.47;5083003;28;20059;-77
2021/10/16 01:19:15;;;;;;;4.38;2.47;;;;;;;12.00;81.76;101387.00;5082722;28;20127;-78
2021/10/16 01:21:45;;;;;;;5.57;2.95;;;;;;;12.01;81.79;101377.53;5084940;28;20032;-78
2021/10/16 01:24:13;;;;;;;6.80;2.55;;;;;;;12.03;81.69;101378.84;5082594;28;20123;-77
2021/10/16 01:26:42;;;;;;;4.88;2.85;;;;;;;12.02;81.71;101381.97;5081517;28;20047;-78
2021/10/16 01:29:10;;;;;;;4.45;2.60;;;;;;;12.01;81.93;101383.09;5093533;28;20055;-78
2021/10/16 01:31:37;;;;;;;8.00;3.30;;;;;;;12.02;81.66;101370.84;5085118;28;20112;-78
2021/10/16 01:34:04;;;;;;;5.88;3.30;;;;;;;12.03;81.67;101376.06;5085314;28;20053;-78
2021/10/16 01:36:47;;;;;;;6.20;3.75;;;;;;;12.01;81.88;101374.78;5085480;28;20051;-78
2021/10/16 01:39:15;;;;;;;10.07;3.63;;;;;;;12.01;81.71;101367.25;5082993;28;20487;-78
2021/10/16 01:41:42;;;;;;;4.05;2.47;;;;;;;12.01;81.88;101360.91;5083340;28;20044;-79
2021/10/16 01:44:10;;;;;;;8.63;3.45;;;;;;;11.99;81.92;101358.44;5079576;28;20047;-77
2021/10/16 01:46:38;;;;;;;7.70;4.20;;;;;;;11.98;81.91;101361.56;5084646;28;20131;-78
2021/10/16 01:49:16;;;;;;;6.78;2.95;;;;;;;11.96;82.06;101358.34;5086276;28;20040;-78
2021/10/16 01:51:45;;;;;;;9.43;3.10;;;;;;;11.97;82.07;101354.38;5082610;28;20044;-78
2021/10/16 01:54:13;;;;;;;6.38;3.38;;;;;;;11.95;82.15;101356.69;5084026;28;20127;-78
2021/10/16 01:56:40;;;;;;;7.20;2.50;;;;;;;11.94;82.28;101352.31;5085899;28;20044;-78
2021/10/16 01:59:12;;;;;;;3.75;2.55;;;;;;;11.92;82.28;101335.16;5087457;28;20468;-78
2021/10/16 02:01:58;;;;;;;6.90;3.08;;;;;;;11.93;82.41;101336.81;5087164;28;20051;-78
2021/10/16 02:04:25;;;;;;;4.75;3.00;;;;;;;11.94;82.32;101333.69;5086628;28;20403;-78
2021/10/16 02:06:52;;;;;;;5.57;2.85;;;;;;;11.95;82.27;101331.72;5087297;28;20052;-78
2021/10/16 02:09:21;;;;;;;4.82;2.53;;;;;;;11.97;82.13;101334.97;5086685;28;20097;-78
2021/10/16 02:11:48;;;;;;;4.80;3.00;;;;;;;11.97;82.39;101329.41;5086389;28;20040;-78
2021/10/16 02:14:15;;;;;;;4.35;2.90;;;;;;;11.97;82.08;101326.63;5086449;28;20048;-78
2021/10/16 02:16:41;;;;;;;7.22;3.00;;;;;;;11.98;82.18;101320.75;5084740;28;20037;-77
2021/10/16 02:19:11;;;;;;;7.55;2.90;;;;;;;11.96;82.18;101322.25;5088766;28;20085;-78
2021/10/16 02:21:38;;;;;;;6.93;2.95;;;;;;;11.94;82.19;101319.03;5086920;28;20502;-78
2021/10/16 02:24:04;;;;;;;4.97;2.95;;;;;;;11.93;82.57;101326.53;5087692;28;20040;-78
2021/10/16 02:26:31;;;;;;;6.97;3.25;;;;;;;11.94;82.28;101327.34;5088734;28;20036;-78
2021/10/16 02:28:58;;;;;;;6.95;2.92;;;;;;;11.93;82.51;101312.66;5089217;28;20042;-78
2021/10/16 02:31:25;;;;;;;4.20;2.67;;;;;;;11.95;82.43;101312.31;5086843;28;20040;-79
2021/10/16 02:33:52;;;;;;;4.18;2.60;;;;;;;11.95;82.22;101306.75;5081767;28;20090;-79
2021/10/16 02:36:19;;;;;;;6.38;3.33;;;;;;;11.96;82.41;101314.75;5088162;28;20812;-79
2021/10/16 02:38:46;;;;;;;3.47;2.45;;;;;;;11.96;82.47;101303.66;5087818;28;20138;-79
2021/10/16 02:41:12;;;;;;;4.07;2.83;;;;;;;11.95;82.13;101301.19;5088828;28;20046;-78
2021/10/16 02:43:40;;;;;;;5.13;2.90;;;;;;;11.94;82.30;101305.16;5087990;28;20412;-78
2021/10/16 02:46:06;;;;;;;6.55;3.30;;;;;;;11.93;82.29;101297.97;5089613;28;20050;-78
2021/10/16 02:48:34;;;;;;;7.22;3.95;;;;;;;11.93;82.29;101297.97;5087379;28;20471;-78
2021/10/16 02:51:00;;;;;;;4.10;2.72;;;;;;;11.95;82.25;101298.41;5088289;28;20117;-78
2021/10/16 02:53:27;;;;;;;4.38;2.90;;;;;;;11.96;82.04;101286.19;5088264;28;20471;-78
2021/10/16 02:55:54;;;;;;;5.00;2.92;;;;;;;11.97;82.30;101282.25;5088341;28;20464;-78
2021/10/16 02:58:21;;;;;;;6.20;2.95;;;;;;;11.98;82.02;101289.41;5088045;28;20393;-78
2021/10/16 03:00:47;;;;;;;7.00;2.70;;;;;;;11.97;81.95;101274.72;5085746;28;20745;-78
2021/10/16 03:03:14;;;;;;;6.72;2.80;;;;;;;11.97;82.04;101273.91;5086522;28;20028;-78
2021/10/16 03:05:41;;;;;;;10.65;3.42;;;;;;;11.96;82.10;101278.69;5087200;28;20073;-78
2021/10/16 03:08:08;;;;;;;6.70;3.00;;;;;;;11.96;81.90;101275.09;5084544;28;20051;-77
2021/10/16 03:10:35;;;;;;;6.40;3.50;;;;;;;11.95;81.87;101273.44;5088991;28;20044;-78
2021/10/16 03:13:01;;;;;;;5.38;3.63;;;;;;;11.95;82.15;101265.13;5086627;28;20032;-78
2021/10/16 03:15:28;;;;;;;8.00;5.00;;;;;;;11.95;81.88;101267.91;5088802;28;20040;-78
2021/10/16 03:17:56;;;;;;;5.13;3.50;;;;;;;11.94;81.90;101271.84;5087334;28;20404;-78
2021/10/16 03:20:23;;;;;;;4.25;3.05;;;;;;;11.93;81.86;101271.03;5088621;28;20044;-78
2021/10/16 03:22:49;;;;;;;4.72;2.85;;;;;;;11.92;81.95;101269.41;5087153;28;20048;-78
2021/10/16 03:25:16;;;;;;;3.88;3.40;;;;;;;11.92;81.93;101263.03;5085500;28;20059;-78
2021/10/16 03:27:43;;;;;;;6.47;3.33;;;;;;;11.93;82.13;101261.88;5087935;28;20142;-78
2021/10/16 03:30:09;;;;;;;5.97;3.50;;;;;;;11.90;82.09;101266.16;5088352;28;20044;-78
2021/10/16 03:32:36;;;;;;;5.10;2.85;;;;;;;11.90;82.29;101265.34;5088470;28;20044;-78
2021/10/16 03:35:03;;;;;;;5.00;2.75;;;;;;;11.90;82.41;101254.25;5088362;28;20089;-78
2021/10/16 03:37:30;;;;;;;5.20;2.83;;;;;;;11.90;82.10;101260.63;5087964;28;20036;-78
2021/10/16 03:39:57;;;;;;;4.80;3.70;;;;;;;11.90;82.35;101254.25;5087828;28;20043;-78
2021/10/16 03:42:23;;;;;;;3.90;2.88;;;;;;;11.89;82.23;101249.84;5083324;28;20046;-78
2021/10/16 03:44:50;;;;;;;5.15;2.67;;;;;;;11.89;82.15;101252.59;5084952;28;20515;-77
2021/10/16 03:47:17;;;;;;;7.28;2.22;;;;;;;11.89;81.92;101255.38;5087261;28;20043;-78
2021/10/16 03:49:43;;;;;;;5.30;2.10;;;;;;;11.90;81.83;101248.69;5087228;28;20048;-78
2021/10/16 03:52:11;;;;;;;3.22;1.80;;;;;;;11.90;81.91;101243.16;5087200;28;20040;-78
2021/10/16 03:54:37;;;;;;;3.78;2.15;;;;;;;11.91;81.75;101244.78;5086799;28;20040;-78
2021/10/16 03:57:04;;;;;;;8.35;2.88;;;;;;;11.90;81.67;101240.38;5085584;28;20071;-78
2021/10/16 03:59:31;;;;;;;5.05;2.38;;;;;;;11.87;81.77;101241.88;5088792;28;20048;-78
2021/10/16 04:01:58;;;;;;;5.72;2.95;;;;;;;11.85;81.93;101235.84;5087823;28;20047;-78
2021/10/16 04:04:25;;;;;;;2.90;1.80;;;;;;;11.86;81.84;101236.66;5069343;28;20733;-78
2021/10/16 04:06:52;;;;;;;3.78;1.27;;;;;;;11.86;81.80;101233.91;5085260;28;20048;-78
2021/10/16 04:09:19;;;;;;;4.88;1.50;;;;;;;11.89;81.61;101239.56;5086773;28;20055;-78
2021/10/16 04:11:48;;;;;;;2.50;1.60;;;;;;;11.90;81.35;101221.75;5086698;28;20047;-77
2021/10/16 04:14:14;;;;;;;3.63;1.80;;;;;;;11.91;81.38;101222.59;5087045;28;20128;-78
2021/10/16 04:16:42;;;;;;;2.95;1.75;;;;;;;11.90;81.45;101223.72;5086795;28;21116;-78
2021/10/16 04:19:09;;;;;;;4.40;1.80;;;;;;;11.90;81.26;101220.94;5083168;28;20480;-78
2021/10/16 04:21:36;;;;;;;3.60;1.70;;;;;;;11.88;81.33;101223.25;5086165;28;20054;-78
2021/10/16 04:24:03;;;;;;;2.95;1.40;;;;;;;11.85;81.51;101218.41;5085562;28;20044;-78
2021/10/16 04:26:30;;;;;;;3.70;1.95;;;;;;;11.85;81.52;101216.44;5085808;28;20044;-78
2021/10/16 04:28:57;;;;;;;1.90;1.13;;;;;;;11.83;81.49;101215.16;5085940;28;20047;-78
2021/10/16 04:31:24;;;;;;;3.78;1.98;;;;;;;11.84;81.58;101214.00;5084741;28;20063;-78
2021/10/16 04:33:51;;;;;;;2.45;1.75;;;;;;;11.82;81.82;101216.28;5101638;27;20040;-79
2021/10/16 04:36:18;;;;;;;11.60;5.43;;;;;;;11.82;81.44;101205.19;5085562;28;20074;-78
2021/10/16 04:38:47;;;;;;;9.32;4.50;;;;;;;11.78;81.43;101218.16;5086730;28;20091;-78
2021/10/16 04:41:15;;;;;;;6.80;3.30;;;;;;;11.74;81.84;101212.47;5086497;28;21081;-78
2021/10/16 04:43:42;;;;;;;6.47;3.10;;;;;;;11.74;81.56;101211.66;5085612;28;20052;-78
2021/10/16 04:46:10;;;;;;;9.68;4.60;;;;;;;11.71;81.66;101212.31;5085944;28;20036;-78
2021/10/16 04:48:44;;;;;;;6.40;3.15;;;;;;;11.68;81.78;101212.97;5084252;28;20123;-78
2021/10/16 04:51:12;;;;;;;5.43;3.53;;;;;;;11.66;81.82;101215.28;5085113;28;20067;-78
2021/10/16 04:53:39;;;;;;;7.00;3.10;;;;;;;11.64;81.76;101210.09;5084827;28;20482;-78
2021/10/16 04:56:06;;;;;;;3.67;2.92;;;;;;;11.62;81.94;101215.19;5067192;28;20040;-78
2021/10/16 04:58:33;;;;;;;3.90;3.08;;;;;;;11.62;81.88;101215.19;5084420;28;20557;-78
2021/10/16 05:00:59;;;;;;;8.52;3.03;;;;;;;11.60;81.69;101206.38;5084989;28;20032;-78
2021/10/16 05:03:26;;;;;;;7.18;3.00;;;;;;;11.58;81.93;101208.66;5085200;28;20057;-78
2021/10/16 05:05:54;;;;;;;6.70;3.30;;;;;;;11.56;82.08;101214.56;5083234;28;20051;-78
2021/10/16 05:08:21;;;;;;;7.95;2.63;;;;;;;11.58;81.90;101214.22;5084615;28;20466;-78
2021/10/16 05:10:48;;;;;;;9.50;3.38;;;;;;;11.58;82.03;101215.03;5086456;28;20044;-78
2021/10/16 05:13:15;;;;;;;4.60;2.85;;;;;;;11.57;82.19;101218.94;5083923;28;20128;-78
2021/10/16 05:15:42;;;;;;;6.70;3.58;;;;;;;11.54;82.28;101222.41;5087181;28;20094;-78
2021/10/16 05:18:09;;;;;;;5.75;3.25;;;;;;;11.52;82.21;101210.84;5086955;28;20036;-78
2021/10/16 05:20:36;;;;;;;6.53;2.58;;;;;;;11.51;82.44;101209.25;5085505;28;20130;-78
2021/10/16 05:23:03;;;;;;;4.88;3.03;;;;;;;11.53;82.40;101219.97;5084610;28;20036;-78
2021/10/16 05:25:29;;;;;;;10.38;3.38;;;;;;;11.49;82.30;101228.16;5084969;28;20054;-78
2021/10/16 05:27:56;;;;;;;5.75;3.95;;;;;;;11.51;82.65;101219.50;5088339;28;20123;-78
2021/10/16 05:30:23;;;;;;;4.65;2.92;;;;;;;11.53;82.58;101209.69;5086596;28;20070;-78
2021/10/16 05:32:50;;;;;;;5.20;3.03;;;;;;;11.55;82.46;101212.94;5090950;28;20122;-78
2021/10/16 05:35:17;;;;;;;3.40;2.10;;;;;;;11.55;82.30;101204.63;5090633;28;20047;-78
2021/10/16 05:37:43;;;;;;;5.60;2.75;;;;;;;11.54;82.48;101204.97;5088699;28;20048;-78
2021/10/16 05:40:10;;;;;;;5.47;2.53;;;;;;;11.54;82.53;101214.06;5089719;28;20476;-78
2021/10/16 05:42:37;;;;;;;5.45;2.58;;;;;;;11.55;82.39;101214.91;5090342;28;20036;-78
2021/10/16 05:45:05;;;;;;;3.20;2.35;;;;;;;11.55;82.32;101218.47;5089502;28;20048;-78
2021/10/16 05:47:32;;;;;;;5.50;2.40;;;;;;;11.55;82.16;101220.44;5090046;28;20697;-78
2021/10/16 05:49:59;;;;;;;2.83;2.00;;;;;;;11.54;82.25;101213.28;5087134;28;20071;-78
2021/10/16 05:52:25;;;;;;;4.82;2.17;;;;;;;11.48;82.26;101214.66;5090627;28;20496;-78
2021/10/16 05:54:52;;;;;;;7.90;2.92;;;;;;;11.42;81.75;101205.72;5088882;28;20415;-78
2021/10/16 05:57:19;;;;;;;2.97;2.05;;;;;;;11.36;81.74;101212.63;5089324;28;20492;-78
2021/10/16 05:59:45;;;;;;;6.45;2.80;;;;;;;11.23;81.68;101202.63;5088947;28;20036;-78
2021/10/16 06:02:12;;;;;;;5.25;2.70;;;;;;;11.16;81.92;101207.91;5089724;28;20044;-79
2021/10/16 06:04:39;;;;;;;7.10;2.33;;;;;;;11.13;81.92;101202.22;5090203;28;20396;-78
2021/10/16 06:07:05;;;;;;;8.63;4.22;;;;;;;11.08;82.08;101205.19;5090217;28;20036;-78
2021/10/16 06:09:32;;;;;;;4.53;2.85;;;;;;;11.05;82.11;101201.13;5089387;28;20070;-78
2021/10/16 06:11:59;;;;;;;3.00;2.10;;;;;;;11.03;82.02;101197.91;5090810;28;20122;-78
2021/10/16 06:14:25;;;;;;;5.03;1.98;;;;;;;10.97;82.13;101197.28;5089991;28;20034;-78
2021/10/16 06:16:52;;;;;;;5.30;1.75;;;;;;;10.92;82.18;101196.66;5087608;28;20456;-78
2021/10/16 06:19:19;;;;;;;4.60;2.22;;;;;;;10.87;82.21;101194.91;5089443;28;20507;-78
2021/10/16 06:21:46;;;;;;;6.40;2.47;;;;;;;10.84;82.30;101194.75;5089015;28;20047;-78
2021/10/16 06:24:13;;;;;;;7.63;2.50;;;;;;;10.82;82.36;101197.06;5091317;28;20036;-78
2021/10/16 06:26:39;;;;;;;4.28;2.05;;;;;;;10.78;82.27;101196.09;5089291;28;20070;-78
2021/10/16 06:29:06;;;;;;;6.80;2.45;;;;;;;10.78;82.10;101185.00;5086805;28;20107;-78
2021/10/16 06:31:33;;;;;;;3.60;2.20;;;;;;;10.77;82.11;101194.50;5087157;28;20054;-78
2021/10/16 06:34:00;;;;;;;16.05;4.05;;;;;;;10.73;82.14;101188.81;5089683;28;20120;-78
2021/10/16 06:36:27;;;;;;;7.75;3.38;;;;;;;10.70;82.00;101185.88;5090342;28;20040;-78
2021/10/16 06:38:53;;;;;;;17.73;4.80;;;;;;;10.68;82.09;101185.41;5089042;28;20040;-78
2021/10/16 06:41:20;;;;;;;15.25;6.20;;;;;;;10.66;82.17;101187.72;5088952;28;20052;-78
2021/10/16 06:43:47;;;;;;;20.60;5.95;;;;;;;10.65;82.34;101186.06;5087335;28;20051;-78
2021/10/16 06:46:14;;;;;;;11.45;4.25;;;;;;;10.65;82.48;101175.00;5086946;28;20050;-78
2021/10/16 06:48:40;;;;;;;8.98;4.05;;;;;;;10.65;82.51;101169.47;5088722;28;20071;-76
2021/10/16 06:51:08;;;;;;;11.00;3.40;;;;;;;10.65;82.46;101158.38;5087178;28;20559;-75
2021/10/16 06:53:35;;;;;;;9.65;3.20;;;;;;;10.62;82.34;101170.94;5086941;28;20040;-76
2021/10/16 06:56:02;;;;;;;7.10;3.03;;;;;;;10.62;82.41;101170.94;5089688;28;20058;-76
2021/10/16 06:58:31;;;;;;;10.15;3.47;;;;;;;10.56;82.50;101171.50;5089940;28;20040;-77
2021/10/16 07:00:58;;;;;;;7.00;2.90;;;;;;;10.53;82.53;101167.44;5087305;28;20052;-78
2021/10/16 07:03:28;;;;;;;10.27;3.80;;;;;;;10.48;82.56;101166.81;5088067;28;20050;-78
2021/10/16 07:05:56;;;;;;;8.30;3.65;;;;;;;10.51;82.44;101163.38;5085471;28;20059;-78
2021/10/16 07:08:29;;;;;;;5.40;2.85;;;;;;;10.51;82.15;101163.38;5086857;28;20051;-78
2021/10/16 07:10:59;;;;;;;6.88;3.05;;;;;;;10.46;82.50;101177.41;5086258;28;21780;-78
2021/10/16 07:13:26;;;;;;;6.38;3.13;;;;;;;10.42;82.54;101176.44;5085741;28;20052;-78
2021/10/16 07:15:53;;;;;;;11.13;3.50;;;;;;;10.38;82.76;101182.63;5085796;28;20044;-78
2021/10/16 07:18:19;;;;;;;11.88;3.80;;;;;;;10.40;82.73;101185.88;5085124;28;20043;-78
2021/10/16 07:20:46;;;;;;;5.32;3.22;;;;;;;10.40;82.22;101185.09;5086762;28;20036;-78
2021/10/16 07:23:33;;;;;;;6.95;4.00;;;;;;;10.40;82.53;101190.63;5084022;28;20059;-78
2021/10/16 07:26:00;;;;;;;8.57;3.35;;;;;;;10.42;82.45;101202.16;5088394;28;20085;-78
2021/10/16 07:28:28;;;;;;;4.03;2.92;;;;;;;10.46;82.38;101196.78;5087734;28;20047;-78
2021/10/16 07:30:55;;;;;;;5.80;2.88;;;;;;;10.44;82.58;101191.56;5088522;28;20050;-76
2021/10/16 07:33:22;;;;;;;10.93;3.38;;;;;;;10.46;82.76;101197.56;5087936;28;20040;-76
2021/10/16 07:35:49;;;;;;;5.95;3.17;;;;;;;10.51;82.63;101191.06;5096905;27;20082;-78
2021/10/16 07:38:16;;;;;;;7.22;3.33;;;;;;;10.52;82.67;101192.66;5087424;28;20047;-78
2021/10/16 07:40:43;;;;;;;5.72;3.20;;;;;;;10.52;82.41;101189.91;5084696;28;20047;-78
2021/10/16 07:43:11;;;;;;;11.20;3.60;;;;;;;10.47;82.61;101190.09;5084673;28;20119;-81
2021/10/16 07:45:38;;;;;;;7.03;3.83;;;;;;;10.46;82.61;101188.50;5088577;28;20119;-80
2021/10/16 07:48:05;;;;;;;8.88;3.13;;;;;;;10.51;82.52;101185.53;5084647;28;20127;-80
2021/10/16 07:50:35;;;;;;;6.68;3.75;;;;;;;10.54;82.65;101193.94;5087257;28;20101;-81
2021/10/16 07:53:03;;;;;;;9.98;4.38;;;;;;;10.59;82.74;101176.34;5084673;28;20130;-81
2021/10/16 07:55:31;;;;;;;8.18;4.65;;;;;;;10.61;82.78;101180.41;5084523;28;20044;-81
2021/10/16 07:57:58;;;;;;;12.43;4.97;;;;;;;10.68;82.63;101190.94;5085442;28;20040;-82
2021/10/16 08:00:25;;;;;;;9.68;4.93;;;;;;;10.72;82.66;101189.94;5085032;28;20040;-80
2021/10/16 08:02:52;;;;;;;10.55;5.13;;;;;;;10.77;82.90;101189.78;5086207;28;20044;-81
2021/10/16 08:05:19;;;;;;;11.60;4.25;;;;;;;10.84;82.90;101180.91;5057849;28;20036;-80
2021/10/16 08:07:46;;;;;;;8.60;4.10;;;;;;;10.90;82.87;101182.34;5085294;28;20046;-81
2021/10/16 08:10:14;;;;;;;8.30;3.90;;;;;;;10.96;82.89;101186.53;5088007;28;20036;-81
2021/10/16 08:12:40;;;;;;;15.15;4.93;;;;;;;11.02;83.06;101180.44;5085046;28;20080;-80
2021/10/16 08:15:08;;;;;;;7.30;4.07;;;;;;;11.10;83.08;101184.31;5085947;28;20050;-81
2021/10/16 08:17:35;;;;;;;11.13;4.25;;;;;;;11.15;83.33;101186.03;5085837;28;20035;-80
2021/10/16 08:20:03;;;;;;;9.98;6.95;;;;;;;11.21;83.44;101187.47;5070243;28;20068;-78
2021/10/16 08:22:31;;;;;;;9.63;5.50;;;;;;;11.26;83.43;101184.50;5100192;27;20048;-78
2021/10/16 08:24:58;;;;;;;12.52;5.57;;;;;;;11.29;83.50;101186.59;5086217;28;20050;-79
2021/10/16 08:27:24;;;;;;;7.50;5.03;;;;;;;11.33;83.75;101191.09;5087816;28;20052;-78
2021/10/16 08:29:51;;;;;;;34.08;25.60;;;;;;;11.38;83.54;101190.94;5081934;28;20052;-78
2021/10/16 08:32:22;;;;;;;12.32;8.18;;;;;;;11.43;83.65;101185.16;5085557;28;20109;-79
2021/10/16 08:34:49;;;;;;;9.07;7.15;;;;;;;11.46;83.81;101184.47;5087145;28;20050;-79
2021/10/16 08:37:16;;;;;;;9.85;5.60;;;;;;;11.51;83.87;101181.50;5084793;28;20044;-78
2021/10/16 08:39:42;;;;;;;7.93;4.07;;;;;;;11.57;83.96;101191.22;5083253;28;20056;-78
2021/10/16 08:42:10;;;;;;;6.97;4.13;;;;;;;11.67;83.93;101191.94;5087673;28;20036;-78
2021/10/16 08:44:42;;;;;;;6.68;3.17;;;;;;;11.75;83.97;101188.31;5087818;28;20056;-78
2021/10/16 08:47:11;;;;;;;5.55;3.30;;;;;;;11.84;83.77;101186.25;5083675;28;20028;-78
2021/10/16 08:49:38;;;;;;;9.73;3.40;;;;;;;11.94;83.74;101177.50;5068893;28;20043;-78
2021/10/16 08:52:05;;;;;;;7.10;3.28;;;;;;;12.03;83.56;101175.44;5069098;28;20048;-78
2021/10/16 08:54:31;;;;;;;3.28;2.63;;;;;;;12.12;83.62;101171.41;5085656;28;20044;-79
2021/10/16 08:56:58;;;;;;;5.90;3.97;;;;;;;12.22;83.52;101172.91;5085249;28;20040;-78
2021/10/16 08:59:25;;;;;;;3.00;2.15;;;;;;;12.35;83.23;101168.16;5069710;28;20385;-78
2021/10/16 09:01:57;;;;;;;4.10;2.40;;;;;;;12.44;82.73;101164.13;5084726;28;20075;-81
2021/10/16 09:04:25;;;;;;;4.43;2.38;;;;;;;12.55;82.73;101170.81;5087678;28;20093;-81
2021/10/16 09:06:52;;;;;;;6.07;2.60;;;;;;;12.66;82.40;101163.63;5092419;28;20123;-78
2021/10/16 09:09:28;;;;;;;5.70;2.70;;;;;;;12.77;82.32;101162.00;5092332;28;20040;-78
2021/10/16 09:11:55;;;;;;;4.03;2.05;;;;;;;12.89;82.29;101165.94;5090626;28;20081;-79
2021/10/16 09:14:24;;;;;;;3.47;1.98;;;;;;;12.98;82.17;101163.81;5091256;28;20040;-78
2021/10/16 09:16:54;;;;;;;4.00;1.88;;;;;;;13.06;82.09;101162.88;5092848;28;20142;-80
2021/10/16 09:19:22;;;;;;;5.13;1.90;;;;;;;13.14;82.03;101162.75;5092936;28;20040;-78
2021/10/16 09:22:02;;;;;;;3.28;1.85;;;;;;;13.21;81.67;101148.28;5090061;28;20040;-78
2021/10/16 09:24:34;;;;;;;6.00;2.45;;;;;;;13.24;81.71;101147.53;5093157;28;20044;-78
2021/10/16 09:27:12;;;;;;;;;;;;;;;13.27;81.08;101147.66;5093818;28;20101;-77
2021/10/16 09:30:05;;;;;;;6.47;2.38;;;;;;;13.31;80.95;101142.22;5090656;28;19927;-78
2021/10/16 09:32:35;;;;;;;6.68;1.90;;;;;;;13.38;81.17;101136.84;5089365;28;20057;-78
2021/10/16 09:35:08;;;;;;;5.68;1.90;;;;;;;13.44;80.80;101129.88;5089913;28;20432;-79
2021/10/16 09:37:51;;;;;;;5.43;1.70;;;;;;;13.49;80.37;101121.25;5086983;28;20038;-78
2021/10/16 09:40:41;;;;;;;6.65;2.00;;;;;;;13.55;80.25;101119.84;5091642;28;20066;-78
2021/10/16 09:43:19;;;;;;;4.32;1.85;;;;;;;13.60;80.36;101122.34;5088651;28;20028;-78
2021/10/16 09:45:47;;;;;;;4.15;1.55;;;;;;;13.67;80.34;101119.75;5090138;28;20123;-78
2021/10/16 09:48:34;;;;;;;6.63;2.58;;;;;;;13.76;80.01;101130.72;5102168;27;20040;-78
2021/10/16 09:51:02;;;;;;;10.40;4.72;;;;;;;13.83;80.21;101125.34;5090602;28;20040;-79
2021/10/16 09:53:29;;;;;;;12.07;4.60;;;;;;;13.94;79.92;101121.69;5088697;28;20150;-78
2021/10/16 09:55:56;;;;;;;13.50;6.93;;;;;;;14.03;79.82;101119.50;5089116;28;20040;-78
2021/10/16 09:58:23;;;;;;;11.63;5.45;;;;;;;14.13;79.42;101117.34;5088134;28;20476;-79
2021/10/16 10:00:53;;;;;;;23.00;9.77;;;;;;;14.21;79.27;101113.59;5086817;28;20032;-78
2021/10/16 10:03:24;;;;;;;9.98;5.38;;;;;;;14.29;78.97;101113.41;5089203;28;20044;-78
2021/10/16 10:05:52;;;;;;;6.72;3.67;;;;;;;14.35;78.96;101113.97;5090179;28;20616;-79
2021/10/16 10:08:19;;;;;;;7.10;5.25;;;;;;;14.42;78.83;101108.56;5087790;28;20089;-79
2021/10/16 10:10:47;;;;;;;10.48;3.80;;;;;;;14.49;78.53;101111.50;5087937;28;20430;-78
2021/10/16 10:13:16;;;;;;;5.40;3.22;;;;;;;14.53;78.38;101109.63;5090879;28;20048;-79
2021/10/16 10:15:44;;;;;;;7.85;3.08;;;;;;;14.53;78.04;101110.41;5089169;28;20032;-78
2021/10/16 10:20:58;;;;;;;9.23;2.97;;;;;;;14.51;77.61;101117.50;5101225;28;20044;-78
2021/10/16 10:23:27;;;;;;;6.38;2.13;;;;;;;14.47;77.30;101111.06;5085996;28;20101;-79
2021/10/16 10:26:25;;;;;;;10.40;2.92;;;;;;;14.42;76.75;101114.13;5084863;28;20127;-80
2021/10/16 10:28:53;;;;;;;5.18;2.83;;;;;;;14.40;76.97;101113.69;5085341;28;20043;-79
2021/10/16 10:31:43;;;;;;;8.05;3.40;;;;;;;14.35;76.90;101102.81;5087152;28;20491;-79
2021/10/16 10:34:13;;;;;;;6.30;2.58;;;;;;;14.33;77.07;101097.59;5087296;28;20468;-79
2021/10/16 10:37:04;;;;;;;7.28;2.33;;;;;;;14.30;76.98;101098.28;5084751;28;20094;-79
2021/10/16 10:39:33;;;;;;;4.78;2.20;;;;;;;14.30;76.66;101103.03;5084844;28;20050;-79
2021/10/16 10:42:02;;;;;;;7.32;2.03;;;;;;;14.28;77.29;101102.59;5086745;28;20036;-79
2021/10/16 10:44:48;;;;;;;6.10;2.22;;;;;;;14.26;76.80;101094.63;5084220;28;20089;-79
2021/10/16 10:47:35;;;;;;;6.25;2.28;;;;;;;14.28;76.84;101091.47;5084652;28;20044;-81
2021/10/16 10:50:09;;;;;;;3.97;1.80;;;;;;;14.30;76.64;101097.47;5066177;28;20048;-80
2021/10/16 10:53:10;;;;;;;5.72;1.92;;;;;;;14.31;75.84;101087.97;5090723;28;20048;-78
2021/10/16 10:55:54;;;;;;;7.45;1.92;;;;;;;14.35;75.77;101084.13;5084934;28;20036;-79
2021/10/16 10:58:22;;;;;;;4.65;2.08;;;;;;;14.39;76.08;101084.19;5085927;28;20044;-79
2021/10/16 11:00:51;;;;;;;3.55;1.90;;;;;;;14.42;75.33;101075.94;5095846;27;20123;-78
2021/10/16 11:03:41;;;;;;;5.13;1.73;;;;;;;14.49;74.55;101078.06;5085474;28;20040;-79
2021/10/16 11:06:08;;;;;;;5.53;1.77;;;;;;;14.56;74.79;101081.03;5079554;28;20412;-81
2021/10/16 11:08:37;;;;;;;6.45;2.20;;;;;;;14.61;74.14;101069.59;5081732;28;20051;-81
2021/10/16 11:11:04;;;;;;;3.05;1.80;;;;;;;14.67;74.29;101070.13;5085612;28;20048;-80
2021/10/16 11:13:33;;;;;;;6.05;2.25;;;;;;;14.74;74.18;101068.28;5083885;28;20040;-80
2021/10/16 11:16:03;;;;;;;4.43;2.40;;;;;;;14.81;73.58;101068.44;5086224;28;20044;-81
2021/10/16 11:18:37;;;;;;;3.28;2.10;;;;;;;14.87;73.89;101066.97;5086757;28;20048;-87
2021/10/16 11:21:10;;;;;;;4.03;1.88;;;;;;;14.93;73.50;101059.91;5085370;28;20090;-83
2021/10/16 11:23:39;;;;;;;9.18;3.58;;;;;;;14.99;73.43;101058.47;5068831;28;20054;-87
2021/10/16 11:26:12;;;;;;;5.13;1.90;;;;;;;15.01;72.36;101052.53;5085756;28;20051;-84
2021/10/16 11:28:42;;;;;;;5.47;1.40;;;;;;;15.04;72.61;101062.91;5082322;28;20134;-83
2021/10/16 11:31:10;;;;;;;7.72;3.58;;;;;;;15.06;72.13;101049.44;5086436;28;20101;-85
2021/10/16 11:33:40;;;;;;;5.85;1.63;;;;;;;15.09;72.05;101043.91;5084920;28;20087;-80